sensor_id;sensor_type;location;lat;lon;timestamp;P1;durP1;ratioP1;P2;durP2;ratioP2
17794;SDS011;9021;50.882;4.326;2022-07-23T00:00:51;16.75;;;13.90;;
17794;SDS011;9021;50.882;4.326;2022-07-23T00:03:17;13.48;;;12.15;;
17794;SDS011;9021;50.882;4.326;2022-07-23T00:05:43;13.52;;;12.20;;
17794;SDS011;9021;50.882;4.326;2022-07-23T00:08:08;16.65;;;12.52;;
17794;SDS011;9021;50.882;4.326;2022-07-23T00:10:34;18.38;;;12.45;;
17794;SDS011;9021;50.882;4.326;2022-07-23T00:13:00;14.65;;;12.50;;
17794;SDS011;9021;50.882;4.326;2022-07-23T00:15:26;15.77;;;12.90;;
17794;SDS011;9021;50.882;4.326;2022-07-23T00:17:52;17.88;;;13.05;;
17794;SDS011;9021;50.882;4.326;2022-07-23T00:20:18;16.25;;;13.05;;
17794;SDS011;9021;50.882;4.326;2022-07-23T00:22:47;15.38;;;12.85;;
17794;SDS011;9021;50.882;4.326;2022-07-23T00:25:16;14.77;;;12.95;;
17794;SDS011;9021;50.882;4.326;2022-07-23T00:27:42;19.15;;;12.77;;
17794;SDS011;9021;50.882;4.326;2022-07-23T00:30:08;15.77;;;12.73;;
17794;SDS011;9021;50.882;4.326;2022-07-23T00:35:20;14.43;;;12.93;;
17794;SDS011;9021;50.882;4.326;2022-07-23T00:37:47;14.38;;;12.23;;
17794;SDS011;9021;50.882;4.326;2022-07-23T00:40:13;16.73;;;12.73;;
17794;SDS011;9021;50.882;4.326;2022-07-23T00:42:39;16.33;;;13.00;;
17794;SDS011;9021;50.882;4.326;2022-07-23T00:45:04;12.38;;;11.23;;
17794;SDS011;9021;50.882;4.326;2022-07-23T00:49:56;13.70;;;12.30;;
17794;SDS011;9021;50.882;4.326;2022-07-23T00:52:22;18.52;;;12.55;;
17794;SDS011;9021;50.882;4.326;2022-07-23T00:54:48;14.90;;;12.10;;
17794;SDS011;9021;50.882;4.326;2022-07-23T00:57:14;15.27;;;12.68;;
17794;SDS011;9021;50.882;4.326;2022-07-23T01:02:06;14.80;;;12.30;;
17794;SDS011;9021;50.882;4.326;2022-07-23T01:04:32;13.85;;;12.35;;
17794;SDS011;9021;50.882;4.326;2022-07-23T01:06:58;14.35;;;12.80;;
17794;SDS011;9021;50.882;4.326;2022-07-23T01:09:25;14.43;;;12.70;;
17794;SDS011;9021;50.882;4.326;2022-07-23T01:11:51;14.38;;;12.50;;
17794;SDS011;9021;50.882;4.326;2022-07-23T01:14:21;16.45;;;12.77;;
17794;SDS011;9021;50.882;4.326;2022-07-23T01:16:47;13.30;;;11.88;;
17794;SDS011;9021;50.882;4.326;2022-07-23T01:19:15;21.65;;;12.20;;
17794;SDS011;9021;50.882;4.326;2022-07-23T01:21:42;14.52;;;13.02;;
17794;SDS011;9021;50.882;4.326;2022-07-23T01:24:09;14.20;;;12.60;;
17794;SDS011;9021;50.882;4.326;2022-07-23T01:26:36;15.90;;;12.70;;
17794;SDS011;9021;50.882;4.326;2022-07-23T01:29:03;17.48;;;13.30;;
17794;SDS011;9021;50.882;4.326;2022-07-23T01:33:55;17.38;;;12.75;;
17794;SDS011;9021;50.882;4.326;2022-07-23T01:36:21;14.07;;;12.65;;
17794;SDS011;9021;50.882;4.326;2022-07-23T01:41:13;15.82;;;12.70;;
17794;SDS011;9021;50.882;4.326;2022-07-23T01:43:38;15.20;;;12.60;;
17794;SDS011;9021;50.882;4.326;2022-07-23T01:46:04;13.20;;;11.90;;
17794;SDS011;9021;50.882;4.326;2022-07-23T01:48:30;13.75;;;12.32;;
17794;SDS011;9021;50.882;4.326;2022-07-23T01:50:56;13.43;;;12.02;;
17794;SDS011;9021;50.882;4.326;2022-07-23T01:53:21;15.48;;;12.05;;
17794;SDS011;9021;50.882;4.326;2022-07-23T01:55:47;13.55;;;12.13;;
17794;SDS011;9021;50.882;4.326;2022-07-23T01:58:13;14.63;;;13.07;;
17794;SDS011;9021;50.882;4.326;2022-07-23T02:00:39;17.40;;;12.88;;
17794;SDS011;9021;50.882;4.326;2022-07-23T02:03:04;15.18;;;12.13;;
17794;SDS011;9021;50.882;4.326;2022-07-23T02:05:30;19.40;;;13.15;;
17794;SDS011;9021;50.882;4.326;2022-07-23T02:10:22;14.98;;;13.57;;
17794;SDS011;9021;50.882;4.326;2022-07-23T02:12:48;15.73;;;13.35;;
17794;SDS011;9021;50.882;4.326;2022-07-23T02:15:14;15.48;;;13.93;;
17794;SDS011;9021;50.882;4.326;2022-07-23T02:17:40;14.70;;;13.05;;
17794;SDS011;9021;50.882;4.326;2022-07-23T02:20:06;15.38;;;13.68;;
17794;SDS011;9021;50.882;4.326;2022-07-23T02:22:32;15.18;;;13.50;;
17794;SDS011;9021;50.882;4.326;2022-07-23T02:24:58;15.45;;;13.85;;
17794;SDS011;9021;50.882;4.326;2022-07-23T02:27:24;17.80;;;13.50;;
17794;SDS011;9021;50.882;4.326;2022-07-23T02:29:49;17.65;;;13.00;;
17794;SDS011;9021;50.882;4.326;2022-07-23T02:32:15;15.18;;;13.10;;
17794;SDS011;9021;50.882;4.326;2022-07-23T02:34:41;13.88;;;12.48;;
17794;SDS011;9021;50.882;4.326;2022-07-23T02:37:07;15.70;;;13.32;;
17794;SDS011;9021;50.882;4.326;2022-07-23T02:39:33;15.93;;;13.45;;
17794;SDS011;9021;50.882;4.326;2022-07-23T02:41:59;17.08;;;14.43;;
17794;SDS011;9021;50.882;4.326;2022-07-23T02:44:25;16.40;;;13.75;;
17794;SDS011;9021;50.882;4.326;2022-07-23T02:46:51;15.77;;;14.10;;
17794;SDS011;9021;50.882;4.326;2022-07-23T02:49:17;16.45;;;14.27;;
17794;SDS011;9021;50.882;4.326;2022-07-23T02:51:42;16.30;;;14.35;;
17794;SDS011;9021;50.882;4.326;2022-07-23T02:54:08;16.42;;;13.70;;
17794;SDS011;9021;50.882;4.326;2022-07-23T02:56:33;19.45;;;13.93;;
17794;SDS011;9021;50.882;4.326;2022-07-23T02:58:59;20.10;;;14.48;;
17794;SDS011;9021;50.882;4.326;2022-07-23T03:01:25;14.25;;;12.82;;
17794;SDS011;9021;50.882;4.326;2022-07-23T03:03:51;19.60;;;13.48;;
17794;SDS011;9021;50.882;4.326;2022-07-23T03:06:16;13.85;;;12.48;;
17794;SDS011;9021;50.882;4.326;2022-07-23T03:08:42;17.55;;;13.02;;
17794;SDS011;9021;50.882;4.326;2022-07-23T03:11:10;15.40;;;13.80;;
17794;SDS011;9021;50.882;4.326;2022-07-23T03:13:39;17.90;;;13.63;;
17794;SDS011;9021;50.882;4.326;2022-07-23T03:16:06;15.18;;;12.48;;
17794;SDS011;9021;50.882;4.326;2022-07-23T03:18:32;14.50;;;12.95;;
17794;SDS011;9021;50.882;4.326;2022-07-23T03:23:23;14.82;;;12.73;;
17794;SDS011;9021;50.882;4.326;2022-07-23T03:25:49;17.23;;;13.32;;
17794;SDS011;9021;50.882;4.326;2022-07-23T03:28:18;15.82;;;13.68;;
17794;SDS011;9021;50.882;4.326;2022-07-23T03:30:47;15.20;;;13.70;;
17794;SDS011;9021;50.882;4.326;2022-07-23T03:33:17;16.85;;;14.18;;
17794;SDS011;9021;50.882;4.326;2022-07-23T03:35:50;18.52;;;13.70;;
17794;SDS011;9021;50.882;4.326;2022-07-23T03:38:15;18.10;;;14.07;;
17794;SDS011;9021;50.882;4.326;2022-07-23T03:40:41;15.27;;;13.65;;
17794;SDS011;9021;50.882;4.326;2022-07-23T03:43:07;14.68;;;13.10;;
17794;SDS011;9021;50.882;4.326;2022-07-23T03:45:33;15.38;;;13.75;;
17794;SDS011;9021;50.882;4.326;2022-07-23T03:47:58;15.60;;;13.98;;
17794;SDS011;9021;50.882;4.326;2022-07-23T03:50:24;16.35;;;13.98;;
17794;SDS011;9021;50.882;4.326;2022-07-23T03:52:50;14.20;;;12.75;;
17794;SDS011;9021;50.882;4.326;2022-07-23T03:55:16;15.27;;;13.70;;
17794;SDS011;9021;50.882;4.326;2022-07-23T03:57:42;15.65;;;14.10;;
17794;SDS011;9021;50.882;4.326;2022-07-23T04:00:08;17.30;;;14.07;;
17794;SDS011;9021;50.882;4.326;2022-07-23T04:02:35;15.20;;;13.30;;
17794;SDS011;9021;50.882;4.326;2022-07-23T04:05:02;14.98;;;13.25;;
17794;SDS011;9021;50.882;4.326;2022-07-23T04:07:28;17.02;;;13.25;;
17794;SDS011;9021;50.882;4.326;2022-07-23T04:09:53;14.43;;;12.88;;
17794;SDS011;9021;50.882;4.326;2022-07-23T04:12:19;14.02;;;12.57;;
17794;SDS011;9021;50.882;4.326;2022-07-23T04:14:45;14.57;;;13.02;;
17794;SDS011;9021;50.882;4.326;2022-07-23T04:17:11;16.10;;;13.38;;
17794;SDS011;9021;50.882;4.326;2022-07-23T04:19:37;15.73;;;13.27;;
17794;SDS011;9021;50.882;4.326;2022-07-23T04:22:06;16.98;;;13.55;;
17794;SDS011;9021;50.882;4.326;2022-07-23T04:24:32;15.25;;;13.07;;
17794;SDS011;9021;50.882;4.326;2022-07-23T04:29:24;14.88;;;13.25;;
17794;SDS011;9021;50.882;4.326;2022-07-23T04:31:50;15.73;;;12.25;;
17794;SDS011;9021;50.882;4.326;2022-07-23T04:34:16;14.65;;;13.13;;
17794;SDS011;9021;50.882;4.326;2022-07-23T04:36:41;15.32;;;12.73;;
17794;SDS011;9021;50.882;4.326;2022-07-23T04:39:07;18.27;;;12.85;;
17794;SDS011;9021;50.882;4.326;2022-07-23T04:41:33;14.30;;;12.90;;
17794;SDS011;9021;50.882;4.326;2022-07-23T04:43:59;13.07;;;11.60;;
17794;SDS011;9021;50.882;4.326;2022-07-23T04:46:25;14.68;;;12.93;;
17794;SDS011;9021;50.882;4.326;2022-07-23T04:48:51;13.65;;;12.25;;
17794;SDS011;9021;50.882;4.326;2022-07-23T04:51:17;13.93;;;12.40;;
17794;SDS011;9021;50.882;4.326;2022-07-23T04:53:42;14.55;;;12.90;;
17794;SDS011;9021;50.882;4.326;2022-07-23T04:56:08;15.02;;;12.77;;
17794;SDS011;9021;50.882;4.326;2022-07-23T04:58:34;14.55;;;12.88;;
17794;SDS011;9021;50.882;4.326;2022-07-23T05:01:00;14.07;;;12.60;;
17794;SDS011;9021;50.882;4.326;2022-07-23T05:03:25;15.88;;;12.68;;
17794;SDS011;9021;50.882;4.326;2022-07-23T05:05:51;14.70;;;12.68;;
17794;SDS011;9021;50.882;4.326;2022-07-23T05:08:17;15.73;;;12.38;;
17794;SDS011;9021;50.882;4.326;2022-07-23T05:10:43;13.75;;;12.45;;
17794;SDS011;9021;50.882;4.326;2022-07-23T05:13:08;15.90;;;12.02;;
17794;SDS011;9021;50.882;4.326;2022-07-23T05:15:34;17.73;;;13.07;;
17794;SDS011;9021;50.882;4.326;2022-07-23T05:17:59;13.73;;;12.18;;
17794;SDS011;9021;50.882;4.326;2022-07-23T05:20:25;13.02;;;11.50;;
17794;SDS011;9021;50.882;4.326;2022-07-23T05:22:51;13.63;;;12.07;;
17794;SDS011;9021;50.882;4.326;2022-07-23T05:25:17;14.52;;;11.68;;
17794;SDS011;9021;50.882;4.326;2022-07-23T05:30:08;12.55;;;11.13;;
17794;SDS011;9021;50.882;4.326;2022-07-23T05:32:34;13.43;;;11.13;;
17794;SDS011;9021;50.882;4.326;2022-07-23T05:35:01;13.05;;;11.00;;
17794;SDS011;9021;50.882;4.326;2022-07-23T05:37:28;12.57;;;10.80;;
17794;SDS011;9021;50.882;4.326;2022-07-23T05:39:53;12.00;;;10.75;;
17794;SDS011;9021;50.882;4.326;2022-07-23T05:42:19;15.93;;;11.68;;
17794;SDS011;9021;50.882;4.326;2022-07-23T05:44:45;12.80;;;11.27;;
17794;SDS011;9021;50.882;4.326;2022-07-23T05:47:10;12.48;;;11.18;;
17794;SDS011;9021;50.882;4.326;2022-07-23T05:49:37;12.00;;;10.80;;
17794;SDS011;9021;50.882;4.326;2022-07-23T05:52:04;12.60;;;11.30;;
17794;SDS011;9021;50.882;4.326;2022-07-23T05:54:30;12.85;;;10.90;;
17794;SDS011;9021;50.882;4.326;2022-07-23T05:56:58;11.57;;;10.48;;
17794;SDS011;9021;50.882;4.326;2022-07-23T05:59:24;12.18;;;9.90;;
17794;SDS011;9021;50.882;4.326;2022-07-23T06:01:49;11.18;;;10.18;;
17794;SDS011;9021;50.882;4.326;2022-07-23T06:04:15;11.70;;;10.02;;
17794;SDS011;9021;50.882;4.326;2022-07-23T06:06:41;11.73;;;10.07;;
17794;SDS011;9021;50.882;4.326;2022-07-23T06:09:06;12.45;;;9.80;;
17794;SDS011;9021;50.882;4.326;2022-07-23T06:11:32;13.73;;;10.13;;
17794;SDS011;9021;50.882;4.326;2022-07-23T06:13:58;11.13;;;9.55;;
17794;SDS011;9021;50.882;4.326;2022-07-23T06:16:23;14.25;;;10.50;;
17794;SDS011;9021;50.882;4.326;2022-07-23T06:18:49;14.45;;;10.73;;
17794;SDS011;9021;50.882;4.326;2022-07-23T06:21:15;14.63;;;10.13;;
17794;SDS011;9021;50.882;4.326;2022-07-23T06:23:40;12.77;;;10.40;;
17794;SDS011;9021;50.882;4.326;2022-07-23T06:26:06;12.40;;;11.15;;
17794;SDS011;9021;50.882;4.326;2022-07-23T06:28:32;18.50;;;11.05;;
17794;SDS011;9021;50.882;4.326;2022-07-23T06:30:57;15.68;;;10.98;;
17794;SDS011;9021;50.882;4.326;2022-07-23T06:33:23;12.75;;;10.68;;
17794;SDS011;9021;50.882;4.326;2022-07-23T06:35:48;12.55;;;11.25;;
17794;SDS011;9021;50.882;4.326;2022-07-23T06:38:14;11.27;;;9.93;;
17794;SDS011;9021;50.882;4.326;2022-07-23T06:40:40;13.80;;;10.50;;
17794;SDS011;9021;50.882;4.326;2022-07-23T06:43:05;13.10;;;10.60;;
17794;SDS011;9021;50.882;4.326;2022-07-23T06:45:31;12.88;;;10.30;;
17794;SDS011;9021;50.882;4.326;2022-07-23T06:47:57;13.98;;;9.27;;
17794;SDS011;9021;50.882;4.326;2022-07-23T06:50:22;13.25;;;9.95;;
17794;SDS011;9021;50.882;4.326;2022-07-23T06:52:48;9.73;;;8.70;;
17794;SDS011;9021;50.882;4.326;2022-07-23T06:57:39;8.63;;;7.15;;
17794;SDS011;9021;50.882;4.326;2022-07-23T07:02:31;8.20;;;6.65;;
17794;SDS011;9021;50.882;4.326;2022-07-23T07:04:56;9.68;;;7.53;;
17794;SDS011;9021;50.882;4.326;2022-07-23T07:07:22;9.63;;;6.38;;
17794;SDS011;9021;50.882;4.326;2022-07-23T07:09:48;8.27;;;6.50;;
17794;SDS011;9021;50.882;4.326;2022-07-23T07:12:14;8.90;;;6.50;;
17794;SDS011;9021;50.882;4.326;2022-07-23T07:14:39;7.13;;;6.13;;
17794;SDS011;9021;50.882;4.326;2022-07-23T07:17:05;10.55;;;6.10;;
17794;SDS011;9021;50.882;4.326;2022-07-23T07:19:31;9.63;;;6.35;;
17794;SDS011;9021;50.882;4.326;2022-07-23T07:21:56;6.60;;;4.80;;
17794;SDS011;9021;50.882;4.326;2022-07-23T07:24:22;8.88;;;5.35;;
17794;SDS011;9021;50.882;4.326;2022-07-23T07:26:48;7.43;;;5.38;;
17794;SDS011;9021;50.882;4.326;2022-07-23T07:29:13;8.60;;;5.93;;
17794;SDS011;9021;50.882;4.326;2022-07-23T07:31:39;5.72;;;4.70;;
17794;SDS011;9021;50.882;4.326;2022-07-23T07:34:05;6.60;;;5.28;;
17794;SDS011;9021;50.882;4.326;2022-07-23T07:36:31;8.20;;;5.50;;
17794;SDS011;9021;50.882;4.326;2022-07-23T07:38:57;6.57;;;5.13;;
17794;SDS011;9021;50.882;4.326;2022-07-23T07:41:23;9.50;;;6.00;;
17794;SDS011;9021;50.882;4.326;2022-07-23T07:43:51;12.63;;;5.28;;
17794;SDS011;9021;50.882;4.326;2022-07-23T07:46:17;5.53;;;4.85;;
17794;SDS011;9021;50.882;4.326;2022-07-23T07:48:43;6.38;;;5.25;;
17794;SDS011;9021;50.882;4.326;2022-07-23T07:51:08;7.35;;;5.18;;
17794;SDS011;9021;50.882;4.326;2022-07-23T07:53:34;6.65;;;5.75;;
17794;SDS011;9021;50.882;4.326;2022-07-23T07:55:59;7.88;;;5.05;;
17794;SDS011;9021;50.882;4.326;2022-07-23T07:58:25;14.13;;;5.25;;
17794;SDS011;9021;50.882;4.326;2022-07-23T08:00:51;7.75;;;5.40;;
17794;SDS011;9021;50.882;4.326;2022-07-23T08:03:16;5.60;;;4.22;;
17794;SDS011;9021;50.882;4.326;2022-07-23T08:05:42;7.95;;;5.10;;
17794;SDS011;9021;50.882;4.326;2022-07-23T08:08:08;5.18;;;4.43;;
17794;SDS011;9021;50.882;4.326;2022-07-23T08:10:39;7.20;;;4.60;;
17794;SDS011;9021;50.882;4.326;2022-07-23T08:13:05;5.28;;;4.20;;
17794;SDS011;9021;50.882;4.326;2022-07-23T08:15:32;7.78;;;5.07;;
17794;SDS011;9021;50.882;4.326;2022-07-23T08:17:57;6.95;;;4.88;;
17794;SDS011;9021;50.882;4.326;2022-07-23T08:20:24;7.10;;;5.45;;
17794;SDS011;9021;50.882;4.326;2022-07-23T08:23:02;6.53;;;5.53;;
17794;SDS011;9021;50.882;4.326;2022-07-23T08:25:29;6.50;;;4.90;;
17794;SDS011;9021;50.882;4.326;2022-07-23T08:27:57;6.18;;;4.50;;
17794;SDS011;9021;50.882;4.326;2022-07-23T08:30:24;5.22;;;3.80;;
17794;SDS011;9021;50.882;4.326;2022-07-23T08:35:30;8.32;;;4.25;;
17794;SDS011;9021;50.882;4.326;2022-07-23T08:37:57;7.18;;;4.00;;
17794;SDS011;9021;50.882;4.326;2022-07-23T08:40:25;6.90;;;4.10;;
17794;SDS011;9021;50.882;4.326;2022-07-23T08:42:52;7.40;;;4.72;;
17794;SDS011;9021;50.882;4.326;2022-07-23T08:45:19;5.95;;;4.20;;
17794;SDS011;9021;50.882;4.326;2022-07-23T08:47:50;5.60;;;4.15;;
17794;SDS011;9021;50.882;4.326;2022-07-23T08:50:17;5.68;;;4.40;;
17794;SDS011;9021;50.882;4.326;2022-07-23T08:52:43;5.90;;;4.43;;
17794;SDS011;9021;50.882;4.326;2022-07-23T08:55:09;6.75;;;4.55;;
17794;SDS011;9021;50.882;4.326;2022-07-23T08:57:35;7.35;;;4.50;;
17794;SDS011;9021;50.882;4.326;2022-07-23T09:00:00;5.22;;;4.10;;
17794;SDS011;9021;50.882;4.326;2022-07-23T09:02:28;6.32;;;4.63;;
17794;SDS011;9021;50.882;4.326;2022-07-23T09:04:54;7.70;;;3.88;;
17794;SDS011;9021;50.882;4.326;2022-07-23T09:07:19;5.63;;;4.25;;
17794;SDS011;9021;50.882;4.326;2022-07-23T09:09:45;9.48;;;4.35;;
17794;SDS011;9021;50.882;4.326;2022-07-23T09:12:11;7.65;;;4.80;;
17794;SDS011;9021;50.882;4.326;2022-07-23T09:14:37;5.50;;;3.67;;
17794;SDS011;9021;50.882;4.326;2022-07-23T09:17:13;5.60;;;4.63;;
17794;SDS011;9021;50.882;4.326;2022-07-23T09:19:41;7.85;;;4.13;;
17794;SDS011;9021;50.882;4.326;2022-07-23T09:22:24;5.88;;;4.22;;
17794;SDS011;9021;50.882;4.326;2022-07-23T09:27:51;7.15;;;4.20;;
17794;SDS011;9021;50.882;4.326;2022-07-23T09:30:22;4.20;;;3.40;;
17794;SDS011;9021;50.882;4.326;2022-07-23T09:33:11;4.22;;;3.58;;
17794;SDS011;9021;50.882;4.326;2022-07-23T09:38:15;5.07;;;3.67;;
17794;SDS011;9021;50.882;4.326;2022-07-23T09:40:41;4.50;;;3.28;;
17794;SDS011;9021;50.882;4.326;2022-07-23T09:43:08;6.35;;;3.25;;
17794;SDS011;9021;50.882;4.326;2022-07-23T09:45:33;3.70;;;3.13;;
17794;SDS011;9021;50.882;4.326;2022-07-23T09:48:09;4.18;;;3.67;;
17794;SDS011;9021;50.882;4.326;2022-07-23T09:50:40;4.65;;;3.35;;
17794;SDS011;9021;50.882;4.326;2022-07-23T09:53:07;5.65;;;3.40;;
17794;SDS011;9021;50.882;4.326;2022-07-23T09:55:34;6.10;;;3.55;;
17794;SDS011;9021;50.882;4.326;2022-07-23T09:58:02;7.88;;;3.17;;
17794;SDS011;9021;50.882;4.326;2022-07-23T10:00:29;5.70;;;3.10;;
17794;SDS011;9021;50.882;4.326;2022-07-23T10:02:56;4.60;;;3.10;;
17794;SDS011;9021;50.882;4.326;2022-07-23T10:05:23;6.57;;;2.92;;
17794;SDS011;9021;50.882;4.326;2022-07-23T10:07:50;4.63;;;2.70;;
17794;SDS011;9021;50.882;4.326;2022-07-23T10:10:17;7.88;;;2.78;;
17794;SDS011;9021;50.882;4.326;2022-07-23T10:12:45;4.07;;;2.60;;
17794;SDS011;9021;50.882;4.326;2022-07-23T10:15:20;3.53;;;2.38;;
17794;SDS011;9021;50.882;4.326;2022-07-23T10:17:47;3.63;;;2.40;;
17794;SDS011;9021;50.882;4.326;2022-07-23T10:20:13;5.00;;;2.83;;
17794;SDS011;9021;50.882;4.326;2022-07-23T10:22:43;4.90;;;2.90;;
17794;SDS011;9021;50.882;4.326;2022-07-23T10:28:26;6.38;;;2.22;;
17794;SDS011;9021;50.882;4.326;2022-07-23T10:37:36;7.35;;;4.00;;
17794;SDS011;9021;50.882;4.326;2022-07-23T10:40:18;5.28;;;2.90;;
17794;SDS011;9021;50.882;4.326;2022-07-23T10:42:47;5.75;;;3.42;;
17794;SDS011;9021;50.882;4.326;2022-07-23T10:48:13;5.32;;;2.85;;
17794;SDS011;9021;50.882;4.326;2022-07-23T10:51:05;3.33;;;2.50;;
17794;SDS011;9021;50.882;4.326;2022-07-23T10:56:16;4.78;;;2.92;;
17794;SDS011;9021;50.882;4.326;2022-07-23T10:59:03;5.13;;;3.30;;
17794;SDS011;9021;50.882;4.326;2022-07-23T11:01:36;4.00;;;2.70;;
17794;SDS011;9021;50.882;4.326;2022-07-23T11:04:03;3.33;;;2.50;;
17794;SDS011;9021;50.882;4.326;2022-07-23T11:09:25;3.15;;;2.38;;
17794;SDS011;9021;50.882;4.326;2022-07-23T11:20:22;4.13;;;3.22;;
17794;SDS011;9021;50.882;4.326;2022-07-23T11:22:49;3.63;;;3.33;;
17794;SDS011;9021;50.882;4.326;2022-07-23T11:27:53;4.18;;;2.42;;
17794;SDS011;9021;50.882;4.326;2022-07-23T11:32:54;2.50;;;1.70;;
17794;SDS011;9021;50.882;4.326;2022-07-23T11:35:46;4.00;;;2.65;;
17794;SDS011;9021;50.882;4.326;2022-07-23T11:38:18;3.28;;;2.22;;
17794;SDS011;9021;50.882;4.326;2022-07-23T11:41:12;4.60;;;3.05;;
17794;SDS011;9021;50.882;4.326;2022-07-23T11:43:47;4.75;;;2.50;;
17794;SDS011;9021;50.882;4.326;2022-07-23T11:46:13;4.00;;;2.72;;
17794;SDS011;9021;50.882;4.326;2022-07-23T11:48:39;5.65;;;2.58;;
17794;SDS011;9021;50.882;4.326;2022-07-23T11:51:04;3.03;;;2.10;;
17794;SDS011;9021;50.882;4.326;2022-07-23T11:53:31;4.88;;;2.60;;
17794;SDS011;9021;50.882;4.326;2022-07-23T11:56:05;3.20;;;1.90;;
17794;SDS011;9021;50.882;4.326;2022-07-23T11:58:32;4.00;;;3.45;;
17794;SDS011;9021;50.882;4.326;2022-07-23T12:00:58;5.07;;;2.47;;
17794;SDS011;9021;50.882;4.326;2022-07-23T12:03:24;7.53;;;2.72;;
17794;SDS011;9021;50.882;4.326;2022-07-23T12:05:50;4.35;;;2.50;;
17794;SDS011;9021;50.882;4.326;2022-07-23T12:08:22;5.53;;;2.60;;
17794;SDS011;9021;50.882;4.326;2022-07-23T12:10:48;4.00;;;3.42;;
17794;SDS011;9021;50.882;4.326;2022-07-23T12:13:15;5.18;;;3.65;;
17794;SDS011;9021;50.882;4.326;2022-07-23T12:15:50;5.28;;;3.55;;
17794;SDS011;9021;50.882;4.326;2022-07-23T12:18:18;4.57;;;2.80;;
17794;SDS011;9021;50.882;4.326;2022-07-23T12:20:47;4.30;;;2.53;;
17794;SDS011;9021;50.882;4.326;2022-07-23T12:23:16;3.80;;;2.50;;
17794;SDS011;9021;50.882;4.326;2022-07-23T12:25:43;3.97;;;2.50;;
17794;SDS011;9021;50.882;4.326;2022-07-23T12:28:11;3.13;;;2.80;;
17794;SDS011;9021;50.882;4.326;2022-07-23T12:33:06;3.80;;;3.20;;
17794;SDS011;9021;50.882;4.326;2022-07-23T12:35:34;4.97;;;3.88;;
17794;SDS011;9021;50.882;4.326;2022-07-23T12:38:12;3.80;;;2.70;;
17794;SDS011;9021;50.882;4.326;2022-07-23T12:40:46;6.78;;;2.55;;
17794;SDS011;9021;50.882;4.326;2022-07-23T12:43:29;6.10;;;2.72;;
17794;SDS011;9021;50.882;4.326;2022-07-23T12:46:13;3.30;;;1.98;;
17794;SDS011;9021;50.882;4.326;2022-07-23T12:51:15;3.67;;;2.50;;
17794;SDS011;9021;50.882;4.326;2022-07-23T12:53:45;5.55;;;2.42;;
17794;SDS011;9021;50.882;4.326;2022-07-23T12:56:17;3.85;;;3.10;;
17794;SDS011;9021;50.882;4.326;2022-07-23T13:01:33;3.92;;;3.22;;
17794;SDS011;9021;50.882;4.326;2022-07-23T13:04:07;5.50;;;3.38;;
17794;SDS011;9021;50.882;4.326;2022-07-23T13:06:34;7.25;;;3.10;;
17794;SDS011;9021;50.882;4.326;2022-07-23T13:09:02;2.83;;;2.50;;
17794;SDS011;9021;50.882;4.326;2022-07-23T13:11:29;3.35;;;2.78;;
17794;SDS011;9021;50.882;4.326;2022-07-23T13:13:55;5.18;;;2.22;;
17794;SDS011;9021;50.882;4.326;2022-07-23T13:16:20;6.50;;;2.83;;
17794;SDS011;9021;50.882;4.326;2022-07-23T13:18:46;4.13;;;2.30;;
17794;SDS011;9021;50.882;4.326;2022-07-23T13:21:12;4.85;;;2.88;;
17794;SDS011;9021;50.882;4.326;2022-07-23T13:23:38;5.18;;;2.63;;
17794;SDS011;9021;50.882;4.326;2022-07-23T13:26:03;3.55;;;2.30;;
17794;SDS011;9021;50.882;4.326;2022-07-23T13:28:29;6.18;;;2.78;;
17794;SDS011;9021;50.882;4.326;2022-07-23T13:30:55;4.10;;;2.70;;
17794;SDS011;9021;50.882;4.326;2022-07-23T13:33:23;2.85;;;2.30;;
17794;SDS011;9021;50.882;4.326;2022-07-23T13:35:49;3.92;;;2.70;;
17794;SDS011;9021;50.882;4.326;2022-07-23T13:38:16;3.47;;;2.28;;
17794;SDS011;9021;50.882;4.326;2022-07-23T13:40:43;4.90;;;2.70;;
17794;SDS011;9021;50.882;4.326;2022-07-23T13:43:11;4.40;;;2.90;;
17794;SDS011;9021;50.882;4.326;2022-07-23T13:45:39;6.70;;;2.78;;
17794;SDS011;9021;50.882;4.326;2022-07-23T13:48:07;3.42;;;2.40;;
17794;SDS011;9021;50.882;4.326;2022-07-23T13:50:34;3.95;;;2.63;;
17794;SDS011;9021;50.882;4.326;2022-07-23T13:53:04;5.15;;;2.65;;
17794;SDS011;9021;50.882;4.326;2022-07-23T13:55:32;3.30;;;2.08;;
17794;SDS011;9021;50.882;4.326;2022-07-23T13:57:58;4.20;;;2.63;;
17794;SDS011;9021;50.882;4.326;2022-07-23T14:00:25;2.78;;;2.42;;
17794;SDS011;9021;50.882;4.326;2022-07-23T14:02:51;3.72;;;2.33;;
17794;SDS011;9021;50.882;4.326;2022-07-23T14:05:17;3.85;;;2.25;;
17794;SDS011;9021;50.882;4.326;2022-07-23T14:07:43;2.95;;;2.33;;
17794;SDS011;9021;50.882;4.326;2022-07-23T14:10:10;3.70;;;2.50;;
17794;SDS011;9021;50.882;4.326;2022-07-23T14:12:36;3.90;;;2.42;;
17794;SDS011;9021;50.882;4.326;2022-07-23T14:15:02;2.65;;;2.20;;
17794;SDS011;9021;50.882;4.326;2022-07-23T14:17:29;3.15;;;2.33;;
17794;SDS011;9021;50.882;4.326;2022-07-23T14:19:55;6.25;;;2.40;;
17794;SDS011;9021;50.882;4.326;2022-07-23T14:22:21;2.88;;;2.13;;
17794;SDS011;9021;50.882;4.326;2022-07-23T14:24:47;3.58;;;2.38;;
17794;SDS011;9021;50.882;4.326;2022-07-23T14:27:12;5.28;;;2.67;;
17794;SDS011;9021;50.882;4.326;2022-07-23T14:29:38;3.08;;;2.08;;
17794;SDS011;9021;50.882;4.326;2022-07-23T14:32:04;3.65;;;2.35;;
17794;SDS011;9021;50.882;4.326;2022-07-23T14:34:30;5.55;;;2.40;;
17794;SDS011;9021;50.882;4.326;2022-07-23T14:36:56;4.05;;;2.88;;
17794;SDS011;9021;50.882;4.326;2022-07-23T14:39:22;5.50;;;2.28;;
17794;SDS011;9021;50.882;4.326;2022-07-23T14:41:48;3.88;;;2.40;;
17794;SDS011;9021;50.882;4.326;2022-07-23T14:44:13;3.80;;;2.55;;
17794;SDS011;9021;50.882;4.326;2022-07-23T14:46:39;3.55;;;2.80;;
17794;SDS011;9021;50.882;4.326;2022-07-23T14:49:05;3.67;;;2.70;;
17794;SDS011;9021;50.882;4.326;2022-07-23T14:51:30;4.18;;;2.65;;
17794;SDS011;9021;50.882;4.326;2022-07-23T14:53:56;3.63;;;2.47;;
17794;SDS011;9021;50.882;4.326;2022-07-23T14:56:22;2.75;;;2.42;;
17794;SDS011;9021;50.882;4.326;2022-07-23T14:58:48;3.05;;;2.67;;
17794;SDS011;9021;50.882;4.326;2022-07-23T15:01:13;3.30;;;2.50;;
17794;SDS011;9021;50.882;4.326;2022-07-23T15:03:39;2.55;;;2.30;;
17794;SDS011;9021;50.882;4.326;2022-07-23T15:06:05;4.10;;;2.80;;
17794;SDS011;9021;50.882;4.326;2022-07-23T15:08:30;3.67;;;2.95;;
17794;SDS011;9021;50.882;4.326;2022-07-23T15:10:56;6.25;;;2.72;;
17794;SDS011;9021;50.882;4.326;2022-07-23T15:13:22;5.70;;;2.80;;
17794;SDS011;9021;50.882;4.326;2022-07-23T15:15:48;3.38;;;3.08;;
17794;SDS011;9021;50.882;4.326;2022-07-23T15:18:13;4.78;;;2.50;;
17794;SDS011;9021;50.882;4.326;2022-07-23T15:20:39;3.97;;;2.60;;
17794;SDS011;9021;50.882;4.326;2022-07-23T15:23:05;3.72;;;2.50;;
17794;SDS011;9021;50.882;4.326;2022-07-23T15:25:31;4.07;;;2.88;;
17794;SDS011;9021;50.882;4.326;2022-07-23T15:27:57;4.57;;;2.97;;
17794;SDS011;9021;50.882;4.326;2022-07-23T15:30:26;3.45;;;3.13;;
17794;SDS011;9021;50.882;4.326;2022-07-23T15:32:52;5.90;;;2.75;;
17794;SDS011;9021;50.882;4.326;2022-07-23T15:35:18;5.07;;;2.85;;
17794;SDS011;9021;50.882;4.326;2022-07-23T15:37:44;5.03;;;2.70;;
17794;SDS011;9021;50.882;4.326;2022-07-23T15:40:10;5.30;;;2.92;;
17794;SDS011;9021;50.882;4.326;2022-07-23T15:42:36;4.85;;;2.92;;
17794;SDS011;9021;50.882;4.326;2022-07-23T15:45:02;4.57;;;2.90;;
17794;SDS011;9021;50.882;4.326;2022-07-23T15:47:28;4.72;;;3.03;;
17794;SDS011;9021;50.882;4.326;2022-07-23T15:49:54;4.10;;;2.88;;
17794;SDS011;9021;50.882;4.326;2022-07-23T15:52:20;3.22;;;2.80;;
17794;SDS011;9021;50.882;4.326;2022-07-23T15:54:46;3.63;;;3.10;;
17794;SDS011;9021;50.882;4.326;2022-07-23T15:57:11;4.45;;;3.30;;
17794;SDS011;9021;50.882;4.326;2022-07-23T15:59:37;4.20;;;2.80;;
17794;SDS011;9021;50.882;4.326;2022-07-23T16:02:03;5.43;;;3.05;;
17794;SDS011;9021;50.882;4.326;2022-07-23T16:04:29;3.33;;;2.72;;